createdAt,value
2017-01-04T00:00:43.667Z,1009.62
2017-01-04T00:01:43.623Z,1009.6
2017-01-04T00:02:43.683Z,1009.65
2017-01-04T00:03:43.638Z,1009.56
2017-01-04T00:04:43.647Z,1009.48
2017-01-04T00:05:43.653Z,1009.36
2017-01-04T00:06:44.011Z,1009.34
2017-01-04T00:07:43.667Z,1009.35
2017-01-04T00:08:43.676Z,1009.33
2017-01-04T00:09:43.732Z,1009.34
2017-01-04T00:10:43.990Z,1009.42
2017-01-04T00:11:43.698Z,1009.31
2017-01-04T00:12:43.703Z,1009.31
2017-01-04T00:13:43.711Z,1009.27
2017-01-04T00:14:43.719Z,1009.22
2017-01-04T00:15:43.777Z,1009.3
2017-01-04T00:16:43.783Z,1009.26
2017-01-04T00:17:43.740Z,1009.25
2017-01-04T00:18:43.750Z,1009.21
2017-01-04T00:19:43.806Z,1009.2
2017-01-04T00:20:43.761Z,1009.17
2017-01-04T00:21:43.770Z,1009.16
2017-01-04T00:22:43.778Z,1009.08
2017-01-04T00:23:43.785Z,1009.06
2017-01-04T00:24:43.792Z,1009.11
2017-01-04T00:25:43.797Z,1009.12
2017-01-04T00:26:43.856Z,1009.14
2017-01-04T00:27:43.811Z,1009.12
2017-01-04T00:28:43.820Z,1009.11
2017-01-04T00:29:43.826Z,1009.08
2017-01-04T00:30:43.835Z,1009.19
2017-01-04T00:31:43.892Z,1009.06
2017-01-04T00:32:43.850Z,1009.12
2017-01-04T00:33:44.758Z,1009.15
2017-01-04T00:34:43.865Z,1009.11
2017-01-04T00:35:43.871Z,1009.06
2017-01-04T00:36:43.878Z,1009.09
2017-01-04T00:37:43.936Z,1009.11
2017-01-04T00:38:43.892Z,1009.16
2017-01-04T00:39:43.900Z,1009.12
2017-01-04T00:40:43.957Z,1009.05
2017-01-04T00:41:43.914Z,1009.06
2017-01-04T00:42:43.923Z,1009.02
2017-01-04T00:43:43.930Z,1008.97
2017-01-04T00:44:43.938Z,1008.92
2017-01-04T00:45:43.944Z,1009.01
2017-01-04T00:46:43.954Z,1008.92
2017-01-04T00:47:43.958Z,1008.86
2017-01-04T00:48:44.014Z,1008.77
2017-01-04T00:49:43.972Z,1008.78
2017-01-04T00:50:43.980Z,1008.73
2017-01-04T00:51:43.987Z,1008.66
2017-01-04T00:52:43.994Z,1008.65
2017-01-04T00:53:44.001Z,1008.81
2017-01-04T00:54:44.008Z,1008.6
2017-01-04T00:55:44.466Z,1008.66
2017-01-04T00:56:44.022Z,1008.57
2017-01-04T00:57:44.030Z,1008.7
2017-01-04T00:58:44.037Z,1008.75
2017-01-04T00:59:44.046Z,1008.76
2017-01-04T01:00:44.102Z,1008.84
2017-01-04T01:01:44.060Z,1008.85
2017-01-04T01:02:44.117Z,1008.81
2017-01-04T01:03:44.123Z,1008.74
2017-01-04T01:04:44.131Z,1008.75
2017-01-04T01:05:44.089Z,1008.72
2017-01-04T01:06:44.096Z,1008.8
2017-01-04T01:07:44.103Z,1008.7
2017-01-04T01:08:44.109Z,1008.71
2017-01-04T01:09:44.167Z,1008.76
2017-01-04T01:10:44.626Z,1008.81
2017-01-04T01:11:44.187Z,1008.82
2017-01-04T01:12:44.139Z,1008.82
2017-01-04T01:13:44.196Z,1008.79
2017-01-04T01:14:44.155Z,1008.87
2017-01-04T01:15:44.162Z,1008.86
2017-01-04T01:16:44.182Z,1008.88
2017-01-04T01:17:44.176Z,1008.86
2017-01-04T01:18:44.182Z,1008.87
2017-01-04T01:19:44.240Z,1008.87
2017-01-04T01:20:44.245Z,1008.88
2017-01-04T01:21:44.205Z,1008.83
2017-01-04T01:22:44.211Z,1008.72
2017-01-04T01:23:44.219Z,1008.77
2017-01-04T01:24:44.227Z,1008.73
2017-01-04T01:25:44.234Z,1008.77
2017-01-04T01:26:44.242Z,1008.64
2017-01-04T01:27:44.247Z,1008.61
2017-01-04T01:28:44.305Z,1008.61
2017-01-04T01:29:44.262Z,1008.52
2017-01-04T01:30:44.418Z,1008.53
2017-01-04T01:31:44.275Z,1008.46
2017-01-04T01:32:44.685Z,1008.4
2017-01-04T01:33:44.291Z,1008.47
2017-01-04T01:34:44.297Z,1008.41
2017-01-04T01:35:44.306Z,1008.37
2017-01-04T01:36:44.368Z,1008.42
2017-01-04T01:37:44.320Z,1008.39
2017-01-04T01:38:44.327Z,1008.35
2017-01-04T01:39:44.384Z,1008.41
2017-01-04T01:40:44.341Z,1008.36
2017-01-04T01:41:44.398Z,1008.39
2017-01-04T01:42:44.355Z,1008.39
2017-01-04T01:43:44.364Z,1008.31
2017-01-04T01:44:44.370Z,1008.3
2017-01-04T01:45:44.377Z,1008.32
2017-01-04T01:46:44.386Z,1008.32
2017-01-04T01:47:44.392Z,1008.32
2017-01-04T01:48:44.400Z,1008.35
2017-01-04T01:49:44.406Z,1008.27
2017-01-04T01:50:44.414Z,1008.28
2017-01-04T01:51:44.469Z,1008.25
2017-01-04T01:52:44.478Z,1008.29
2017-01-04T01:53:44.485Z,1008.32
2017-01-04T01:54:44.793Z,1008.35
2017-01-04T01:55:44.449Z,1008.36
2017-01-04T01:56:44.456Z,1008.22
2017-01-04T01:57:44.513Z,1008.23
2017-01-04T01:58:44.471Z,1008.15
2017-01-04T01:59:44.477Z,1008.19
2017-01-04T02:00:44.535Z,1008.36
2017-01-04T02:01:44.492Z,1008.18
2017-01-04T02:02:44.548Z,1008.18
2017-01-04T02:03:44.506Z,1008.22
2017-01-04T02:04:44.513Z,1008.2
2017-01-04T02:05:44.521Z,1008.15
2017-01-04T02:06:44.579Z,1008.12
2017-01-04T02:07:44.536Z,1008.19
2017-01-04T02:08:44.543Z,1008.1
2017-01-04T02:09:44.599Z,1008.02
2017-01-04T02:10:44.607Z,1008.08
2017-01-04T02:11:44.564Z,1008
2017-01-04T02:12:44.572Z,1008.04
2017-01-04T02:13:44.579Z,1008.04
2017-01-04T02:14:44.587Z,1008.05
2017-01-04T02:15:44.592Z,1008.03
2017-01-04T02:16:44.600Z,1008.02
2017-01-04T02:17:44.658Z,1007.98
2017-01-04T02:18:45.730Z,1008
2017-01-04T02:19:44.622Z,1007.94
2017-01-04T02:20:44.628Z,1008.07
2017-01-04T02:21:44.636Z,1007.98
2017-01-04T02:22:44.693Z,1007.93
2017-01-04T02:23:44.650Z,1007.89
2017-01-04T02:24:44.708Z,1007.9
2017-01-04T02:25:44.761Z,1007.93
2017-01-04T02:26:44.674Z,1007.83
2017-01-04T02:27:44.679Z,1007.8
2017-01-04T02:28:44.684Z,1007.77
2017-01-04T02:29:44.694Z,1007.76
2017-01-04T02:30:44.700Z,1007.78
2017-01-04T02:31:44.757Z,1007.79
2017-01-04T02:32:44.780Z,1007.86
2017-01-04T02:33:44.772Z,1007.77
2017-01-04T02:34:44.730Z,1007.82
2017-01-04T02:35:44.787Z,1007.86
2017-01-04T02:36:44.742Z,1007.82
2017-01-04T02:37:44.800Z,1007.8
2017-01-04T02:38:44.772Z,1007.81
2017-01-04T02:39:44.765Z,1007.81
2017-01-04T02:40:44.772Z,1007.79
2017-01-04T02:41:44.778Z,1007.78
2017-01-04T02:42:44.836Z,1007.71
2017-01-04T02:43:44.882Z,1007.72
2017-01-04T02:44:44.899Z,1007.65
2017-01-04T02:45:44.859Z,1007.61
2017-01-04T02:46:44.813Z,1007.62
2017-01-04T02:47:44.869Z,1007.67
2017-01-04T02:48:44.828Z,1007.42
2017-01-04T02:49:44.836Z,1007.49
2017-01-04T02:50:44.844Z,1007.53
2017-01-04T02:51:44.900Z,1007.52
2017-01-04T02:52:44.958Z,1007.46
2017-01-04T02:53:44.864Z,1007.4
2017-01-04T02:54:44.943Z,1007.48
2017-01-04T02:55:44.879Z,1007.45
2017-01-04T02:56:44.886Z,1007.45
2017-01-04T02:57:44.942Z,1007.37
2017-01-04T02:58:44.899Z,1007.32
2017-01-04T02:59:44.962Z,1007.24
2017-01-04T03:00:44.914Z,1007.23
2017-01-04T03:01:44.996Z,1007.31
2017-01-04T03:02:44.986Z,1007.2
2017-01-04T03:03:44.934Z,1007.29
2017-01-04T03:04:44.992Z,1007.45
2017-01-04T03:05:45.001Z,1007.32
2017-01-04T03:06:45.010Z,1007.36
2017-01-04T03:07:44.963Z,1007.39
2017-01-04T03:08:45.021Z,1007.44
2017-01-04T03:09:44.978Z,1007.39
2017-01-04T03:10:45.083Z,1007.34
2017-01-04T03:11:45.080Z,1007.36
2017-01-04T03:12:44.999Z,1007.44
2017-01-04T03:13:45.044Z,1007.37
2017-01-04T03:14:45.064Z,1007.4
2017-01-04T03:15:45.091Z,1007.39
2017-01-04T03:16:45.028Z,1007.49
2017-01-04T03:17:46.088Z,1007.43
2017-01-04T03:18:45.149Z,1007.38
2017-01-04T03:19:45.099Z,1007.28
2017-01-04T03:20:45.106Z,1007.13
2017-01-04T03:21:45.113Z,1007.13
2017-01-04T03:22:45.069Z,1007.25
2017-01-04T03:23:45.078Z,1007.16
2017-01-04T03:24:45.098Z,1007.21
2017-01-04T03:25:45.142Z,1007.23
2017-01-04T03:26:45.099Z,1007.32
2017-01-04T03:27:45.156Z,1007.2
2017-01-04T03:28:45.113Z,1007.33
2017-01-04T03:29:45.120Z,1007.34
2017-01-04T03:30:45.155Z,1007.27
2017-01-04T03:31:46.136Z,1007.23
2017-01-04T03:32:45.292Z,1007.12
2017-01-04T03:33:45.148Z,1007.15
2017-01-04T03:34:45.156Z,1007.14
2017-01-04T03:35:45.163Z,1007.15
2017-01-04T03:36:45.170Z,1007.09
2017-01-04T03:37:45.226Z,1007.15
2017-01-04T03:38:45.184Z,1007.22
2017-01-04T03:39:45.190Z,1007.29
2017-01-04T03:40:45.198Z,1007.16
2017-01-04T03:41:45.256Z,1007.08
2017-01-04T03:42:45.214Z,1007.03
2017-01-04T03:43:45.219Z,1007.11
2017-01-04T03:44:45.228Z,1007.05
2017-01-04T03:45:45.305Z,1007.02
2017-01-04T03:46:45.291Z,1006.92
2017-01-04T03:47:45.250Z,1006.93
2017-01-04T03:48:45.284Z,1006.98
2017-01-04T03:49:45.263Z,1007.02
2017-01-04T03:50:45.347Z,1007.01
2017-01-04T03:51:45.277Z,1007.01
2017-01-04T03:52:45.353Z,1007.06
2017-01-04T03:53:45.292Z,1007.09
2017-01-04T03:54:45.385Z,1007.1
2017-01-04T03:55:45.305Z,1007.12
2017-01-04T03:56:45.381Z,1007.13
2017-01-04T03:57:45.396Z,1007.04
2017-01-04T03:58:45.377Z,1007.07
2017-01-04T03:59:45.334Z,1007.04
2017-01-04T04:00:45.341Z,1007.08
2017-01-04T04:01:45.375Z,1007.05
2017-01-04T04:02:45.356Z,1007.03
2017-01-04T04:03:45.413Z,1006.97
2017-01-04T04:04:45.439Z,1006.94
2017-01-04T04:05:45.431Z,1006.92
2017-01-04T04:06:45.382Z,1006.98
2017-01-04T04:07:45.390Z,1006.88
2017-01-04T04:08:45.599Z,1006.84
2017-01-04T04:09:45.407Z,1006.89
2017-01-04T04:10:45.411Z,1006.86
2017-01-04T04:11:45.505Z,1006.93
2017-01-04T04:12:45.428Z,1006.9
2017-01-04T04:13:46.114Z,1006.89
2017-01-04T04:14:45.441Z,1006.87
2017-01-04T04:15:45.527Z,1006.89
2017-01-04T04:16:45.454Z,1006.87
2017-01-04T04:17:45.462Z,1006.79
2017-01-04T04:18:45.520Z,1006.82
2017-01-04T04:19:45.476Z,1006.76
2017-01-04T04:20:45.883Z,1006.77
2017-01-04T04:21:45.490Z,1006.67
2017-01-04T04:22:45.498Z,1006.66
2017-01-04T04:23:45.504Z,1006.64
2017-01-04T04:24:45.561Z,1006.6
2017-01-04T04:25:45.568Z,1006.58
2017-01-04T04:26:45.620Z,1006.44
2017-01-04T04:27:45.626Z,1006.46
2017-01-04T04:28:45.617Z,1006.54
2017-01-04T04:29:45.597Z,1006.52
2017-01-04T04:30:45.606Z,1006.51
2017-01-04T04:31:45.610Z,1006.49
2017-01-04T04:32:46.318Z,1006.41
2017-01-04T04:33:45.624Z,1006.44
2017-01-04T04:34:45.640Z,1006.37
2017-01-04T04:35:45.637Z,1006.38
2017-01-04T04:36:45.616Z,1006.31
2017-01-04T04:37:45.652Z,1006.24
2017-01-04T04:38:45.609Z,1006.27
2017-01-04T04:39:45.702Z,1006.26
2017-01-04T04:40:45.623Z,1006.24
2017-01-04T04:41:45.716Z,1006.23
2017-01-04T04:42:45.719Z,1006.2
2017-01-04T04:43:45.645Z,1006.21
2017-01-04T04:44:45.715Z,1006.15
2017-01-04T04:45:45.771Z,1006.2
2017-01-04T04:46:45.747Z,1006.18
2017-01-04T04:47:45.673Z,1006.17
2017-01-04T04:48:45.697Z,1006.22
2017-01-04T04:49:45.721Z,1006.21
2017-01-04T04:50:45.693Z,1006.18
2017-01-04T04:51:45.784Z,1006.28
2017-01-04T04:52:45.708Z,1006.22
2017-01-04T04:53:45.783Z,1006.19
2017-01-04T04:54:45.721Z,1006.12
2017-01-04T04:55:45.729Z,1006.2
2017-01-04T04:56:45.738Z,1006.07
2017-01-04T04:57:45.792Z,1006.09
2017-01-04T04:59:45.789Z,1006
2017-01-04T05:00:45.818Z,1005.97
2017-01-04T05:01:45.869Z,1006.02
2017-01-04T05:02:45.779Z,1006.02
2017-01-04T05:03:45.834Z,1005.98
2017-01-04T05:04:45.792Z,1005.96
2017-01-04T05:05:46.120Z,1005.97
2017-01-04T05:06:45.892Z,1005.89
2017-01-04T05:07:45.863Z,1005.85
2017-01-04T05:08:45.818Z,1005.89
2017-01-04T05:09:45.877Z,1005.89
2017-01-04T05:10:45.904Z,1005.93
2017-01-04T05:11:45.841Z,1005.95
2017-01-04T05:12:45.949Z,1005.95
2017-01-04T05:13:45.917Z,1005.91
2017-01-04T05:14:45.862Z,1005.94
2017-01-04T05:15:45.952Z,1005.82
2017-01-04T05:16:45.952Z,1005.92
2017-01-04T05:17:45.918Z,1005.87
2017-01-04T05:18:45.891Z,1005.85
2017-01-04T05:19:45.898Z,1005.77
2017-01-04T05:20:45.905Z,1005.74
2017-01-04T05:21:45.974Z,1005.81
2017-01-04T05:22:45.919Z,1005.75
2017-01-04T05:23:46.012Z,1005.76
2017-01-04T05:24:46.018Z,1005.61
2017-01-04T05:25:45.990Z,1005.66
2017-01-04T05:26:46.039Z,1005.7
2017-01-04T05:27:46.003Z,1005.72
2017-01-04T05:28:45.961Z,1005.66
2017-01-04T05:29:46.085Z,1005.71
2017-01-04T05:30:46.096Z,1005.76
2017-01-04T05:31:46.433Z,1005.78
2017-01-04T05:32:47.080Z,1005.87
2017-01-04T05:33:46.060Z,1005.89
2017-01-04T05:34:46.052Z,1005.92
2017-01-04T05:35:46.034Z,1005.95
2017-01-04T05:36:46.016Z,1005.97
2017-01-04T05:37:46.023Z,1006.34
2017-01-04T05:38:46.114Z,1006.57
2017-01-04T05:39:46.084Z,1006.59
2017-01-04T05:40:46.386Z,1006.4
2017-01-04T05:41:46.050Z,1006.41
2017-01-04T05:42:46.123Z,1006.54
2017-01-04T05:43:46.168Z,1006.55
2017-01-04T05:44:46.661Z,1006.25
2017-01-04T05:45:46.078Z,1006.21
2017-01-04T05:46:46.085Z,1006.36
2017-01-04T05:47:46.104Z,1006.38
2017-01-04T05:48:46.108Z,1006.4
2017-01-04T05:49:46.104Z,1006.32
2017-01-04T05:50:46.187Z,1006.42
2017-01-04T05:51:46.124Z,1006.38
2017-01-04T05:52:46.125Z,1006.31
2017-01-04T05:53:46.131Z,1006.32
2017-01-04T05:54:46.322Z,1006.29
2017-01-04T05:55:46.225Z,1006.34
2017-01-04T05:56:46.240Z,1006.21
2017-01-04T05:57:46.245Z,1006.25
2017-01-04T05:58:46.243Z,1006.34
2017-01-04T05:59:47.429Z,1006.35
2017-01-04T06:00:46.229Z,1006.29
2017-01-04T06:01:46.237Z,1006.3
2017-01-04T06:02:46.329Z,1006.27
2017-01-04T06:03:46.292Z,1006.24
2017-01-04T06:04:46.314Z,1006.18
2017-01-04T06:05:46.265Z,1006.18
2017-01-04T06:06:46.258Z,1006.23
2017-01-04T06:07:46.227Z,1006.36
2017-01-04T06:08:46.322Z,1006.41
2017-01-04T06:09:46.292Z,1006.32
2017-01-04T06:10:46.343Z,1006.32
2017-01-04T06:11:46.302Z,1006.33
2017-01-04T06:12:46.292Z,1006.41
2017-01-04T06:13:46.350Z,1006.37
2017-01-04T06:14:46.296Z,1006.38
2017-01-04T06:15:46.385Z,1006.4
2017-01-04T06:16:46.305Z,1006.33
2017-01-04T06:17:46.311Z,1006.34
2017-01-04T06:18:46.316Z,1006.33
2017-01-04T06:19:46.360Z,1006.35
2017-01-04T06:20:46.317Z,1006.27
2017-01-04T06:21:46.339Z,1006.26
2017-01-04T06:22:46.380Z,1006.26
2017-01-04T06:23:46.418Z,1006.3
2017-01-04T06:24:46.353Z,1006.27
2017-01-04T06:25:46.423Z,1006.26
2017-01-04T06:26:46.421Z,1006.3
2017-01-04T06:27:46.370Z,1006.24
2017-01-04T06:28:46.371Z,1006.22
2017-01-04T06:29:46.393Z,1006.24
2017-01-04T06:30:46.389Z,1006.19
2017-01-04T06:31:46.404Z,1006.25
2017-01-04T06:32:46.482Z,1006.26
2017-01-04T06:33:46.504Z,1006.32
2017-01-04T06:34:46.472Z,1006.29
2017-01-04T06:35:46.522Z,1006.28
2017-01-04T06:36:46.478Z,1006.27
2017-01-04T06:37:46.435Z,1006.3
2017-01-04T06:38:46.440Z,1006.32
2017-01-04T06:39:46.531Z,1006.37
2017-01-04T06:40:46.486Z,1006.37
2017-01-04T06:41:46.512Z,1006.4
2017-01-04T06:42:46.468Z,1006.44
2017-01-04T06:43:46.475Z,1006.44
2017-01-04T06:44:46.482Z,1006.44
2017-01-04T06:45:46.581Z,1006.33
2017-01-04T06:46:46.497Z,1006.29
2017-01-04T06:47:46.502Z,1006.13
2017-01-04T06:48:46.593Z,1006.15
2017-01-04T06:49:46.548Z,1006.16
2017-01-04T06:50:46.568Z,1006.16
2017-01-04T06:51:46.532Z,1006.12
2017-01-04T06:52:46.627Z,1006.11
2017-01-04T06:53:47.212Z,1006.15
2017-01-04T06:54:46.602Z,1006.03
2017-01-04T06:55:46.608Z,1006.02
2017-01-04T06:56:46.613Z,1005.97
2017-01-04T06:57:46.623Z,1006.03
2017-01-04T06:58:47.263Z,1006.01
2017-01-04T06:59:46.594Z,1006.1
2017-01-04T07:00:46.698Z,1006.03
2017-01-04T07:01:46.703Z,1006.01
2017-01-04T07:02:46.606Z,1006.03
2017-01-04T07:03:46.664Z,1006.01
2017-01-04T07:04:46.621Z,1006.05
2017-01-04T07:05:46.625Z,1006.18
2017-01-04T07:06:47.758Z,1006.25
2017-01-04T07:07:46.730Z,1006.32
2017-01-04T07:08:46.708Z,1006.24
2017-01-04T07:09:46.654Z,1006.26
2017-01-04T07:10:46.661Z,1006.23
2017-01-04T07:11:46.750Z,1006.19
2017-01-04T07:12:46.673Z,1006.21
2017-01-04T07:13:46.681Z,1006.22
2017-01-04T07:14:47.863Z,1006.23
2017-01-04T07:15:46.760Z,1006.24
2017-01-04T07:16:46.773Z,1006.23
2017-01-04T07:17:46.792Z,1006.21
2017-01-04T07:18:46.791Z,1006.3
2017-01-04T07:19:47.551Z,1006.25
2017-01-04T07:20:46.729Z,1006.21
2017-01-04T07:21:46.748Z,1006.27
2017-01-04T07:22:46.826Z,1006.19
2017-01-04T07:23:46.837Z,1006.16
2017-01-04T07:24:46.834Z,1006.19
2017-01-04T07:25:46.841Z,1006.24
2017-01-04T07:26:46.805Z,1006.2
2017-01-04T07:27:46.835Z,1006.27
2017-01-04T07:28:46.813Z,1006.29
2017-01-04T07:29:46.839Z,1006.33
2017-01-04T07:30:47.804Z,1006.36
2017-01-04T07:31:46.804Z,1006.43
2017-01-04T07:32:46.859Z,1006.37
2017-01-04T07:33:46.884Z,1006.35
2017-01-04T07:34:46.900Z,1006.36
2017-01-04T07:35:46.888Z,1006.51
2017-01-04T07:36:46.887Z,1006.48
2017-01-04T07:37:46.893Z,1006.48
2017-01-04T07:38:46.849Z,1006.52
2017-01-04T07:39:46.959Z,1006.57
2017-01-04T07:40:46.916Z,1006.49
2017-01-04T07:41:47.407Z,1006.55
2017-01-04T07:42:46.925Z,1006.56
2017-01-04T07:43:46.883Z,1006.61
2017-01-04T07:44:46.970Z,1006.54
2017-01-04T07:45:46.896Z,1006.6
2017-01-04T07:46:46.905Z,1006.64
2017-01-04T07:47:46.945Z,1006.58
2017-01-04T07:48:46.962Z,1006.68
2017-01-04T07:49:46.975Z,1006.71
2017-01-04T07:50:47.033Z,1006.69
2017-01-04T07:51:46.993Z,1006.69
2017-01-04T07:52:46.997Z,1006.69
2017-01-04T07:53:46.953Z,1006.65
2017-01-04T07:54:47.011Z,1006.69
2017-01-04T07:55:47.016Z,1006.69
2017-01-04T07:56:47.068Z,1006.78
2017-01-04T07:57:47.084Z,1006.75
2017-01-04T07:58:47.062Z,1006.76
2017-01-04T07:59:46.997Z,1006.75
2017-01-04T08:00:47.055Z,1006.76
2017-01-04T08:01:47.174Z,1006.75
2017-01-04T08:02:47.103Z,1006.8
2017-01-04T08:03:47.105Z,1006.87
2017-01-04T08:04:47.034Z,1006.86
2017-01-04T08:05:47.111Z,1006.92
2017-01-04T08:06:47.122Z,1006.86
2017-01-04T08:07:47.057Z,1006.83
2017-01-04T08:08:47.127Z,1006.81
2017-01-04T08:09:47.071Z,1006.84
2017-01-04T08:10:47.130Z,1006.89
2017-01-04T08:11:47.087Z,1006.9
2017-01-04T08:12:47.094Z,1006.91
2017-01-04T08:13:47.193Z,1006.86
2017-01-04T08:14:47.178Z,1006.91
2017-01-04T08:15:47.203Z,1006.95
2017-01-04T08:16:47.159Z,1006.94
2017-01-04T08:17:47.467Z,1007
2017-01-04T08:18:47.235Z,1007.01
2017-01-04T08:19:47.148Z,1006.93
2017-01-04T08:20:47.206Z,1006.94
2017-01-04T08:21:47.240Z,1006.91
2017-01-04T08:22:47.171Z,1006.87
2017-01-04T08:23:47.273Z,1006.86
2017-01-04T08:24:47.279Z,1006.89
2017-01-04T08:25:47.240Z,1006.93
2017-01-04T08:26:47.271Z,1006.94
2017-01-04T08:27:47.283Z,1006.92
2017-01-04T08:28:47.269Z,1006.97
2017-01-04T08:29:47.227Z,1006.91
2017-01-04T08:30:47.286Z,1006.98
2017-01-04T08:31:47.244Z,1006.97
2017-01-04T08:32:47.315Z,1006.9
2017-01-04T08:33:47.322Z,1006.92
2017-01-04T08:34:47.363Z,1006.99
2017-01-04T08:35:47.275Z,1006.95
2017-01-04T08:36:47.375Z,1006.97
2017-01-04T08:37:47.340Z,1006.94
2017-01-04T08:38:47.298Z,1006.89
2017-01-04T08:39:47.380Z,1006.92
2017-01-04T08:40:47.431Z,1006.92
2017-01-04T08:41:47.324Z,1006.94
2017-01-04T08:42:47.381Z,1006.9
2017-01-04T08:43:47.376Z,1006.89
2017-01-04T08:44:47.441Z,1006.85
2017-01-04T08:45:47.376Z,1006.97
2017-01-04T08:46:47.361Z,1006.94
2017-01-04T08:47:47.421Z,1006.9
2017-01-04T08:48:47.397Z,1007.03
2017-01-04T08:49:47.463Z,1006.89
2017-01-04T08:50:47.467Z,1006.92
2017-01-04T08:51:47.402Z,1006.92
2017-01-04T08:52:47.461Z,1006.96
2017-01-04T08:53:47.419Z,1007.02
2017-01-04T08:54:47.505Z,1007.13
2017-01-04T08:55:47.603Z,1007.12
2017-01-04T08:56:47.442Z,1007.14
2017-01-04T08:57:47.529Z,1007.14
2017-01-04T08:58:47.534Z,1007.19
2017-01-04T08:59:47.544Z,1007.11
2017-01-04T09:00:47.544Z,1007.17
2017-01-04T09:01:47.484Z,1007.14
2017-01-04T09:02:47.491Z,1007.12
2017-01-04T09:03:47.499Z,1007.15
2017-01-04T09:04:47.609Z,1007.13
2017-01-04T09:05:47.516Z,1007.08
2017-01-04T09:06:47.585Z,1007.15
2017-01-04T09:07:47.609Z,1007.07
2017-01-04T09:08:47.631Z,1007.1
2017-01-04T09:09:47.597Z,1007.11
2017-01-04T09:10:47.660Z,1007.14
2017-01-04T09:11:47.630Z,1007.17
2017-01-04T09:12:47.572Z,1007.12
2017-01-04T09:13:47.671Z,1007.16
2017-01-04T09:14:47.639Z,1007.18
2017-01-04T09:15:47.677Z,1007.12
2017-01-04T09:16:47.700Z,1007.22
2017-01-04T09:17:47.667Z,1007.17
2017-01-04T09:18:47.653Z,1007.22
2017-01-04T09:19:47.679Z,1007.19
2017-01-04T09:20:47.715Z,1007.23
2017-01-04T09:21:47.670Z,1007.15
2017-01-04T09:22:47.654Z,1007.13
2017-01-04T09:23:47.757Z,1007.16
2017-01-04T09:24:47.668Z,1007.16
2017-01-04T09:25:47.677Z,1007.14
2017-01-04T09:26:47.732Z,1007.16
2017-01-04T09:27:47.695Z,1007.21
2017-01-04T09:28:47.763Z,1007.18
2017-01-04T09:29:47.784Z,1007.23
2017-01-04T09:30:47.805Z,1007.22
2017-01-04T09:31:47.726Z,1007.19
2017-01-04T09:32:47.808Z,1007.13
2017-01-04T09:33:47.743Z,1007.16
2017-01-04T09:34:47.846Z,1007.09
2017-01-04T09:35:47.841Z,1007.06
2017-01-04T09:36:47.821Z,1007.11
2017-01-04T09:37:47.775Z,1007.1
2017-01-04T09:38:47.783Z,1007.15
2017-01-04T09:39:47.931Z,1007.17
2017-01-04T09:40:47.891Z,1007.28
2017-01-04T09:41:47.888Z,1007.26
2017-01-04T09:42:47.884Z,1007.33
2017-01-04T09:43:47.824Z,1007.17
2017-01-04T09:44:47.938Z,1007.26
2017-01-04T09:45:47.890Z,1007.2
2017-01-04T09:46:47.849Z,1007.24
2017-01-04T09:47:47.857Z,1007.11
2017-01-04T09:48:47.866Z,1007.22
2017-01-04T09:49:47.899Z,1007.2
2017-01-04T09:50:47.883Z,1007.15
2017-01-04T09:51:47.945Z,1007.21
2017-01-04T09:52:48.009Z,1007.21
2017-01-04T09:53:47.946Z,1007.21
2017-01-04T09:54:47.963Z,1007.32
2017-01-04T09:55:47.973Z,1007.27
2017-01-04T09:56:47.983Z,1007.24
2017-01-04T09:57:47.939Z,1007.3
2017-01-04T09:58:47.947Z,1007.45
2017-01-04T09:59:48.021Z,1007.36
2017-01-04T10:00:48.021Z,1007.42
2017-01-04T10:01:48.004Z,1007.37
2017-01-04T10:02:48.010Z,1007.52
2017-01-04T10:03:47.988Z,1007.42
2017-01-04T10:04:48.069Z,1007.63
2017-01-04T10:05:48.003Z,1007.69
2017-01-04T10:06:48.110Z,1007.81
2017-01-04T10:07:48.082Z,1008.06
2017-01-04T10:08:48.107Z,1007.75
2017-01-04T10:09:48.123Z,1007.62
2017-01-04T10:10:48.044Z,1007.7
2017-01-04T10:11:48.100Z,1007.71
2017-01-04T10:12:48.058Z,1007.62
2017-01-04T10:13:48.135Z,1007.72
2017-01-04T10:14:48.074Z,1007.73
2017-01-04T10:15:48.107Z,1007.71
2017-01-04T10:16:48.140Z,1007.73
2017-01-04T10:17:48.150Z,1007.75
2017-01-04T10:18:48.156Z,1007.79
2017-01-04T10:19:48.164Z,1007.74
2017-01-04T10:20:48.159Z,1007.73
2017-01-04T10:21:48.131Z,1007.66
2017-01-04T10:22:48.187Z,1007.72
2017-01-04T10:23:48.195Z,1007.62
2017-01-04T10:24:48.249Z,1007.65
2017-01-04T10:25:48.162Z,1007.66
2017-01-04T10:26:48.248Z,1007.63
2017-01-04T10:27:48.177Z,1007.63
2017-01-04T10:28:48.186Z,1007.62
2017-01-04T10:29:48.245Z,1007.65
2017-01-04T10:30:48.313Z,1007.67
2017-01-04T10:31:48.210Z,1007.62
2017-01-04T10:32:48.321Z,1007.57
2017-01-04T10:33:48.288Z,1007.56
2017-01-04T10:34:48.234Z,1007.6
2017-01-04T10:35:48.264Z,1007.56
2017-01-04T10:36:48.398Z,1007.62
2017-01-04T10:37:48.365Z,1007.45
2017-01-04T10:38:48.273Z,1007.42
2017-01-04T10:39:48.277Z,1007.5
2017-01-04T10:40:48.382Z,1007.51
2017-01-04T10:41:48.441Z,1007.53
2017-01-04T10:42:48.555Z,1007.49
2017-01-04T10:43:48.572Z,1007.54
2017-01-04T10:44:48.423Z,1007.57
2017-01-04T10:45:48.324Z,1007.61
2017-01-04T10:46:48.332Z,1007.52
2017-01-04T10:47:48.341Z,1007.5
2017-01-04T10:48:48.410Z,1007.55
2017-01-04T10:49:48.357Z,1007.56
2017-01-04T10:50:48.366Z,1007.49
2017-01-04T10:51:48.463Z,1007.4
2017-01-04T10:52:48.411Z,1007.45
2017-01-04T10:53:48.389Z,1007.51
2017-01-04T10:54:48.398Z,1007.36
2017-01-04T10:55:48.471Z,1007.41
2017-01-04T10:56:48.414Z,1007.34
2017-01-04T10:57:48.471Z,1007.26
2017-01-04T10:58:48.502Z,1007.36
2017-01-04T10:59:48.529Z,1007.31
2017-01-04T11:00:48.996Z,1007.36
2017-01-04T11:01:48.455Z,1007.42
2017-01-04T11:02:48.543Z,1007.5
2017-01-04T11:03:48.519Z,1007.47
2017-01-04T11:04:48.478Z,1007.44
2017-01-04T11:05:48.536Z,1007.42
2017-01-04T11:06:48.494Z,1007.5
2017-01-04T11:07:49.091Z,1007.45
2017-01-04T11:08:48.509Z,1007.44
2017-01-04T11:09:48.569Z,1007.53
2017-01-04T11:10:48.602Z,1007.41
2017-01-04T11:11:48.635Z,1007.46
2017-01-04T11:12:48.542Z,1007.47
2017-01-04T11:13:48.624Z,1007.42
2017-01-04T11:14:48.558Z,1007.51
2017-01-04T11:15:48.565Z,1007.54
2017-01-04T11:16:48.573Z,1007.58
2017-01-04T11:17:48.663Z,1007.58
2017-01-04T11:18:48.696Z,1007.55
2017-01-04T11:19:48.654Z,1007.47
2017-01-04T11:20:48.605Z,1007.62
2017-01-04T11:21:48.710Z,1007.5
2017-01-04T11:22:48.682Z,1007.59
2017-01-04T11:23:48.629Z,1007.49
2017-01-04T11:24:48.689Z,1007.6
2017-01-04T11:25:48.721Z,1007.51
2017-01-04T11:26:48.757Z,1007.51
2017-01-04T11:27:48.745Z,1007.5
2017-01-04T11:28:48.738Z,1007.6
2017-01-04T11:29:48.708Z,1007.52
2017-01-04T11:30:48.737Z,1007.51
2017-01-04T11:31:48.693Z,1007.46
2017-01-04T11:32:48.766Z,1007.5
2017-01-04T11:33:48.708Z,1007.55
2017-01-04T11:34:49.017Z,1007.48
2017-01-04T11:35:48.724Z,1007.34
2017-01-04T11:36:48.783Z,1007.33
2017-01-04T11:37:48.775Z,1007.41
2017-01-04T11:38:48.783Z,1007.34
2017-01-04T11:39:48.786Z,1007.31
2017-01-04T11:40:48.815Z,1007.27
2017-01-04T11:41:48.878Z,1007.37
2017-01-04T11:42:48.781Z,1007.24
2017-01-04T11:43:48.789Z,1007.17
2017-01-04T11:44:48.831Z,1007.2
2017-01-04T11:45:48.893Z,1007.28
2017-01-04T11:46:48.812Z,1007.28
2017-01-04T11:47:48.913Z,1007.28
2017-01-04T11:48:48.829Z,1007.3
2017-01-04T11:49:48.940Z,1007.22
2017-01-04T11:50:48.935Z,1007.25
2017-01-04T11:51:48.909Z,1007.23
2017-01-04T11:52:48.862Z,1007.33
2017-01-04T11:53:48.919Z,1007.36
2017-01-04T11:54:48.877Z,1007.24
2017-01-04T11:55:48.925Z,1007.27
2017-01-04T11:56:48.893Z,1007.26
2017-01-04T11:57:48.901Z,1007.31
2017-01-04T11:58:48.959Z,1007.28
2017-01-04T11:59:48.958Z,1007.28
2017-01-04T12:00:48.976Z,1007.31
2017-01-04T12:01:48.933Z,1007.31
2017-01-04T12:02:48.996Z,1007.42
2017-01-04T12:03:49.001Z,1007.4
2017-01-04T12:04:48.958Z,1007.4
2017-01-04T12:05:48.970Z,1007.4
2017-01-04T12:06:48.975Z,1007.44
2017-01-04T12:07:48.983Z,1007.31
2017-01-04T12:08:49.090Z,1007.29
2017-01-04T12:09:48.999Z,1007.32